Time;durP1;ratioP1;P1;durP2;ratioP2;P2;SDS_P1;SDS_P2;PMS_P1;PMS_P2;Temp;Humidity;BMP_temperature;BMP_pressure;BME280_temperature;BME280_humidity;BME280_pressure;Samples;Min_cycle;Max_cycle;Signal;HPM_P1;HPM_P2
2021/05/30 00:01:45;;;;;;;23.10;16.25;;;13.60;62.40;;;;;;5029904;28;20053;-67
2021/05/30 00:04:10;;;;;;;22.70;16.05;;;13.60;62.90;;;;;;5032060;28;20053;-67
2021/05/30 00:06:36;;;;;;;24.23;17.60;;;13.60;63.20;;;;;;5031813;28;20061;-67
2021/05/30 00:09:01;;;;;;;25.40;17.17;;;13.50;63.60;;;;;;5031887;28;20478;-68
2021/05/30 00:11:27;;;;;;;23.13;16.50;;;13.50;63.70;;;;;;5032678;28;20387;-67
2021/05/30 00:13:55;;;;;;;25.83;17.08;;;13.40;63.80;;;;;;5014647;28;20515;-67
2021/05/30 00:16:20;;;;;;;26.50;17.65;;;13.40;64.00;;;;;;5032323;28;20606;-67
2021/05/30 00:18:46;;;;;;;29.17;18.77;;;13.40;64.30;;;;;;5032156;28;20017;-67
2021/05/30 00:21:11;;;;;;;34.35;22.10;;;13.40;64.30;;;;;;5032532;28;20116;-67
2021/05/30 00:23:37;;;;;;;36.28;23.20;;;13.30;64.30;;;;;;5032178;28;20117;-67
2021/05/30 00:26:04;;;;;;;31.52;22.95;;;13.30;64.30;;;;;;5032155;28;20116;-67
2021/05/30 00:28:29;;;;;;;31.17;21.65;;;13.30;64.20;;;;;;5032316;28;20087;-67
2021/05/30 00:30:55;;;;;;;27.10;18.90;;;13.30;64.60;;;;;;5030817;28;20026;-67
2021/05/30 00:33:21;;;;;;;23.90;18.98;;;13.20;64.40;;;;;;5032017;28;20021;-67
2021/05/30 00:35:47;;;;;;;33.72;21.08;;;13.20;64.40;;;;;;5032001;28;20515;-67
2021/05/30 00:38:12;;;;;;;32.95;21.50;;;13.20;64.70;;;;;;5032101;28;20538;-67
2021/05/30 00:40:40;;;;;;;33.08;21.13;;;13.20;64.60;;;;;;5031763;28;20060;-67
2021/05/30 00:43:06;;;;;;;35.55;20.60;;;13.20;65.00;;;;;;5031820;28;20021;-67
2021/05/30 00:45:31;;;;;;;33.85;21.88;;;13.10;65.00;;;;;;5031761;28;20476;-67
2021/05/30 00:47:57;;;;;;;33.88;20.48;;;13.10;65.10;;;;;;5031995;28;20472;-67
2021/05/30 00:50:22;;;;;;;35.58;19.00;;;13.10;65.30;;;;;;5031634;28;20149;-67
2021/05/30 00:52:48;;;;;;;26.63;19.58;;;13.10;65.30;;;;;;5031662;28;20299;-67
2021/05/30 00:55:14;;;;;;;31.05;19.75;;;13.10;65.40;;;;;;5014167;28;20116;-67
2021/05/30 00:57:39;;;;;;;26.13;18.83;;;13.00;65.40;;;;;;5031717;28;20103;-67
2021/05/30 01:00:06;;;;;;;31.70;19.08;;;13.00;65.50;;;;;;5031585;28;20021;-67
2021/05/30 01:02:32;;;;;;;24.70;18.63;;;13.00;65.60;;;;;;5031387;28;20032;-67
2021/05/30 01:04:57;;;;;;;29.15;18.40;;;13.00;65.90;;;;;;5031756;28;20033;-67
2021/05/30 01:07:23;;;;;;;24.70;18.63;;;12.90;66.50;;;;;;5031423;28;20057;-67
2021/05/30 01:09:50;;;;;;;27.70;19.15;;;12.90;66.80;;;;;;5031290;28;20033;-67
2021/05/30 01:12:16;;;;;;;28.63;19.75;;;12.90;66.30;;;;;;5031273;28;20044;-67
2021/05/30 01:14:41;;;;;;;31.45;18.95;;;12.80;66.30;;;;;;5013790;28;20022;-67
2021/05/30 01:17:08;;;;;;;31.40;19.10;;;12.80;66.40;;;;;;4997340;28;20048;-67
2021/05/30 01:19:34;;;;;;;29.95;19.77;;;12.80;66.50;;;;;;5031160;28;20021;-67
2021/05/30 01:21:59;;;;;;;25.63;19.90;;;12.80;67.00;;;;;;5031328;28;20025;-67
2021/05/30 01:24:25;;;;;;;29.90;19.67;;;12.70;67.20;;;;;;5031185;28;20063;-67
2021/05/30 01:26:51;;;;;;;24.60;18.58;;;12.70;67.30;;;;;;5013290;28;20033;-67
2021/05/30 01:29:16;;;;;;;28.33;19.48;;;12.70;67.70;;;;;;5030621;28;20545;-67
2021/05/30 01:31:42;;;;;;;28.65;19.58;;;12.60;67.80;;;;;;5030831;28;20112;-67
2021/05/30 01:34:07;;;;;;;27.77;19.38;;;12.50;67.90;;;;;;5031089;28;20071;-67
2021/05/30 01:36:33;;;;;;;29.25;20.65;;;12.50;67.90;;;;;;5030852;28;20120;-67
2021/05/30 01:38:58;;;;;;;30.80;19.58;;;12.50;68.10;;;;;;5030817;28;20387;-66
2021/05/30 01:41:24;;;;;;;30.25;20.20;;;12.40;68.10;;;;;;5030938;28;20025;-67
2021/05/30 01:43:49;;;;;;;30.65;21.23;;;12.40;68.40;;;;;;5030646;28;20022;-67
2021/05/30 01:46:15;;;;;;;26.52;20.20;;;12.40;68.50;;;;;;5030816;28;20488;-67
2021/05/30 01:48:41;;;;;;;32.42;20.58;;;12.30;68.60;;;;;;5030962;28;20536;-68
2021/05/30 01:51:06;;;;;;;30.15;20.35;;;12.30;68.80;;;;;;5030566;28;20108;-67
2021/05/30 01:58:32;;;;;;;29.92;21.65;;;12.10;69.30;;;;;;5030520;28;20026;-67
2021/05/30 02:00:59;;;;;;;30.55;21.48;;;12.10;69.30;;;;;;5013003;28;20025;-67
2021/05/30 02:03:24;;;;;;;27.77;20.15;;;12.10;69.60;;;;;;5013182;28;20099;-67
2021/05/30 02:05:52;;;;;;;29.77;22.88;;;12.00;69.60;;;;;;4996501;28;20219;-67
2021/05/30 02:08:17;;;;;;;33.83;23.52;;;12.00;69.60;;;;;;5030159;28;20036;-67
2021/05/30 02:10:43;;;;;;;38.83;22.50;;;11.90;69.90;;;;;;5030481;28;20030;-67
2021/05/30 02:13:08;;;;;;;33.28;22.17;;;11.90;69.90;;;;;;5030308;28;20049;-67
2021/05/30 02:15:34;;;;;;;32.67;22.40;;;12.00;69.90;;;;;;5030303;28;20124;-67
2021/05/30 02:18:00;;;;;;;29.83;21.67;;;11.90;70.60;;;;;;5030296;28;20049;-67
2021/05/30 02:20:31;;;;;;;35.65;24.05;;;11.80;70.10;;;;;;5030436;28;20021;-67
2021/05/30 02:22:56;;;;;;;32.45;22.05;;;11.90;70.40;;;;;;5030234;28;20419;-67
2021/05/30 02:25:22;;;;;;;32.08;23.27;;;11.90;70.40;;;;;;5029955;28;20025;-67
2021/05/30 02:27:47;;;;;;;34.03;22.48;;;11.80;70.40;;;;;;5030020;28;20047;-67
2021/05/30 02:30:13;;;;;;;32.78;23.30;;;11.80;70.80;;;;;;5012609;28;20025;-67
2021/05/30 02:32:39;;;;;;;34.97;23.58;;;11.80;70.80;;;;;;5030013;28;20029;-67
2021/05/30 02:35:05;;;;;;;34.05;23.27;;;11.80;70.90;;;;;;5030009;28;20022;-67
2021/05/30 02:37:30;;;;;;;34.38;24.42;;;11.70;71.00;;;;;;5029921;28;20022;-67
2021/05/30 02:39:56;;;;;;;37.25;24.98;;;11.60;71.00;;;;;;5029915;28;20500;-67
2021/05/30 02:42:21;;;;;;;36.60;24.98;;;11.60;71.30;;;;;;5031327;28;20468;-67
2021/05/30 02:44:47;;;;;;;35.72;24.80;;;11.50;71.40;;;;;;5034004;28;20022;-67
2021/05/30 02:47:12;;;;;;;34.05;24.05;;;11.50;71.70;;;;;;5034246;28;20036;-67
2021/05/30 02:49:38;;;;;;;41.65;24.55;;;11.50;71.80;;;;;;5033966;28;20026;-66
2021/05/30 02:52:04;;;;;;;37.08;23.80;;;11.40;71.80;;;;;;5033877;28;20098;-68
2021/05/30 02:54:29;;;;;;;37.75;23.88;;;11.40;72.00;;;;;;5033896;28;20431;-67
2021/05/30 02:56:55;;;;;;;36.85;25.95;;;11.40;72.00;;;;;;5034062;28;20029;-67
2021/05/30 02:59:20;;;;;;;35.55;23.85;;;11.30;72.10;;;;;;5033835;28;20044;-67
2021/05/30 03:01:46;;;;;;;35.08;24.25;;;11.30;72.10;;;;;;5033745;28;20029;-67
2021/05/30 03:04:11;;;;;;;33.10;24.63;;;11.30;72.80;;;;;;5033646;28;20026;-67
2021/05/30 03:06:37;;;;;;;34.92;24.75;;;11.30;72.80;;;;;;5033392;28;20032;-67
2021/05/30 03:09:03;;;;;;;38.05;24.63;;;11.20;73.20;;;;;;5033564;28;20472;-67
2021/05/30 03:11:28;;;;;;;40.25;25.50;;;11.20;73.30;;;;;;5033729;28;20365;-67
2021/05/30 03:13:54;;;;;;;34.33;24.95;;;11.20;73.30;;;;;;5033628;28;20036;-67
2021/05/30 03:16:20;;;;;;;34.15;24.02;;;11.20;73.60;;;;;;5033508;28;20025;-67
2021/05/30 03:18:46;;;;;;;35.58;25.52;;;11.20;73.50;;;;;;5033596;28;20680;-67
2021/05/30 03:21:12;;;;;;;34.45;24.48;;;11.20;73.50;;;;;;5033091;28;20030;-67
2021/05/30 03:23:37;;;;;;;33.30;25.13;;;11.20;73.40;;;;;;5015013;28;20021;-67
2021/05/30 03:26:03;;;;;;;36.08;23.50;;;11.20;73.40;;;;;;5032818;28;20033;-67
2021/05/30 03:28:29;;;;;;;38.28;25.33;;;11.20;73.40;;;;;;5033073;28;20025;-67
2021/05/30 03:30:54;;;;;;;36.40;24.58;;;11.10;73.30;;;;;;5032945;28;20025;-67
2021/05/30 03:33:20;;;;;;;36.35;24.70;;;11.10;73.40;;;;;;5032922;28;20022;-67
2021/05/30 03:35:45;;;;;;;33.00;24.05;;;11.10;73.30;;;;;;5032768;28;20033;-67
2021/05/30 03:38:13;;;;;;;31.70;23.42;;;11.10;73.20;;;;;;5032808;28;20021;-67
2021/05/30 03:40:46;;;;;;;35.65;24.58;;;11.10;73.30;;;;;;5032494;28;20053;-67
2021/05/30 03:43:12;;;;;;;35.40;25.02;;;11.10;73.40;;;;;;5032875;28;20022;-67
2021/05/30 03:45:38;;;;;;;34.67;24.75;;;11.00;73.40;;;;;;5014937;28;20052;-67
2021/05/30 03:48:05;;;;;;;37.75;25.13;;;11.10;73.50;;;;;;5032785;28;20045;-67
2021/05/30 03:50:31;;;;;;;37.40;24.67;;;11.00;73.30;;;;;;5032281;28;20028;-67
2021/05/30 03:52:56;;;;;;;34.88;24.33;;;11.00;73.40;;;;;;5014485;28;20022;-67
2021/05/30 03:55:22;;;;;;;36.35;25.08;;;11.10;73.30;;;;;;5032234;28;20471;-67
2021/05/30 03:57:48;;;;;;;35.20;23.90;;;11.00;73.20;;;;;;5032220;28;20033;-66
2021/05/30 04:00:18;;;;;;;35.33;24.42;;;11.00;73.20;;;;;;5032484;28;20014;-66
2021/05/30 04:02:44;;;;;;;36.88;24.73;;;11.10;73.30;;;;;;5032298;28;20037;-66
2021/05/30 04:05:10;;;;;;;34.72;25.30;;;11.10;73.10;;;;;;5032216;28;20022;-67
2021/05/30 04:07:36;;;;;;;36.38;24.63;;;11.10;73.10;;;;;;5032116;28;20026;-66
2021/05/30 04:10:06;;;;;;;36.47;23.73;;;11.10;73.00;;;;;;5032036;28;20026;-66
2021/05/30 04:12:36;;;;;;;37.75;25.15;;;11.10;72.90;;;;;;5031945;28;20059;-66
2021/05/30 04:15:02;;;;;;;36.38;24.35;;;11.20;72.80;;;;;;5013998;28;20025;-67
2021/05/30 04:17:28;;;;;;;36.58;23.23;;;11.20;72.60;;;;;;5032446;28;20104;-67
2021/05/30 04:19:53;;;;;;;40.17;23.75;;;11.30;72.30;;;;;;5031856;28;20155;-66
2021/05/30 04:22:19;;;;;;;32.75;22.63;;;11.40;72.10;;;;;;5031724;28;20112;-66
2021/05/30 04:24:44;;;;;;;34.17;22.80;;;11.50;71.80;;;;;;5031898;28;20104;-67
2021/05/30 04:27:10;;;;;;;36.22;23.58;;;11.50;71.60;;;;;;5032002;28;20577;-66
2021/05/30 04:29:35;;;;;;;32.92;22.35;;;11.50;71.30;;;;;;5031595;28;20590;-66
2021/05/30 04:32:02;;;;;;;37.15;24.33;;;11.50;71.20;;;;;;5031526;28;20036;-67
2021/05/30 04:34:28;;;;;;;33.85;23.17;;;11.60;71.00;;;;;;5031964;28;20072;-67
2021/05/30 04:36:54;;;;;;;31.98;22.75;;;11.70;70.80;;;;;;5031705;28;20029;-67
2021/05/30 04:39:20;;;;;;;39.83;25.17;;;11.70;70.50;;;;;;5031080;28;20038;-67
2021/05/30 04:41:45;;;;;;;33.67;23.25;;;11.80;70.30;;;;;;5031527;28;20033;-67
2021/05/30 04:44:11;;;;;;;33.25;23.42;;;11.80;70.30;;;;;;5031691;28;20028;-67
2021/05/30 04:46:36;;;;;;;33.45;22.38;;;11.80;70.20;;;;;;5031269;28;20053;-67
2021/05/30 04:49:02;;;;;;;33.78;23.13;;;11.90;70.00;;;;;;5031312;28;20034;-66
2021/05/30 04:51:27;;;;;;;34.85;22.65;;;12.00;69.50;;;;;;5031486;28;20118;-66
2021/05/30 04:53:55;;;;;;;35.95;22.73;;;12.10;69.40;;;;;;5031265;28;20076;-66
2021/05/30 04:56:21;;;;;;;31.23;21.25;;;12.20;68.90;;;;;;5031137;28;20040;-66
2021/05/30 04:58:48;;;;;;;29.67;21.55;;;12.30;68.60;;;;;;5030962;28;20041;-66
2021/05/30 05:01:13;;;;;;;32.67;21.67;;;12.30;68.00;;;;;;5031355;28;20031;-66
2021/05/30 05:03:39;;;;;;;35.42;21.35;;;12.40;67.50;;;;;;5031049;28;20108;-67
2021/05/30 05:06:04;;;;;;;27.67;19.73;;;12.40;67.30;;;;;;5030093;28;20091;-66
2021/05/30 05:08:30;;;;;;;31.70;20.75;;;12.50;67.10;;;;;;5030671;28;20415;-66
2021/05/30 05:10:55;;;;;;;29.30;20.88;;;12.60;66.70;;;;;;5030982;28;20029;-66
2021/05/30 05:13:21;;;;;;;28.52;20.90;;;12.60;66.30;;;;;;5030851;28;20104;-67
2021/05/30 05:15:48;;;;;;;27.65;19.70;;;12.70;66.30;;;;;;5030736;28;20021;-66
2021/05/30 05:18:21;;;;;;;26.88;20.63;;;12.70;66.10;;;;;;5031109;28;20101;-66
2021/05/30 05:20:47;;;;;;;33.38;19.70;;;12.80;65.70;;;;;;5030599;28;20480;-66
2021/05/30 05:23:19;;;;;;;28.92;19.55;;;12.90;65.00;;;;;;5030685;28;20029;-66
2021/05/30 05:25:54;;;;;;;29.25;19.50;;;13.00;64.90;;;;;;5030766;28;20071;-66
2021/05/30 05:28:21;;;;;;;27.40;20.13;;;13.10;64.70;;;;;;5030750;28;20044;-66
2021/05/30 05:30:46;;;;;;;32.15;19.08;;;13.10;64.30;;;;;;5030409;28;20022;-67
2021/05/30 05:33:12;;;;;;;25.30;19.33;;;13.20;64.10;;;;;;5030788;28;20029;-66
2021/05/30 05:35:38;;;;;;;31.60;20.05;;;13.30;63.80;;;;;;5030257;28;20049;-67
2021/05/30 05:38:03;;;;;;;27.20;18.88;;;13.40;63.50;;;;;;5030069;28;20123;-67
2021/05/30 05:40:29;;;;;;;24.35;18.17;;;13.50;63.00;;;;;;5030361;28;20050;-66
2021/05/30 05:42:54;;;;;;;26.05;18.98;;;13.50;63.00;;;;;;5030506;28;20029;-67
2021/05/30 05:45:20;;;;;;;24.75;18.58;;;13.50;62.80;;;;;;5030063;28;20633;-66
2021/05/30 05:47:46;;;;;;;26.08;17.85;;;13.60;62.60;;;;;;5030282;28;20384;-66
2021/05/30 05:50:15;;;;;;;23.73;17.60;;;13.60;62.00;;;;;;5030472;28;20080;-66
2021/05/30 05:52:40;;;;;;;24.20;17.63;;;13.60;61.70;;;;;;5030173;28;20365;-67
2021/05/30 05:55:07;;;;;;;25.63;15.75;;;13.70;61.50;;;;;;5030040;28;20029;-67
2021/05/30 05:57:34;;;;;;;21.20;15.13;;;13.70;60.80;;;;;;5029981;28;20420;-67
2021/05/30 06:00:00;;;;;;;25.27;16.60;;;13.80;60.60;;;;;;5030027;28;20353;-67
2021/05/30 06:02:25;;;;;;;19.52;14.55;;;13.80;60.90;;;;;;5030081;28;20083;-66
2021/05/30 06:04:51;;;;;;;24.02;15.73;;;13.80;60.40;;;;;;5029820;28;20075;-67
2021/05/30 06:07:17;;;;;;;24.08;14.95;;;14.00;60.00;;;;;;5029843;28;20025;-67
2021/05/30 06:09:42;;;;;;;23.90;14.50;;;14.10;59.50;;;;;;5030188;28;20083;-66
2021/05/30 06:12:08;;;;;;;20.73;15.05;;;14.20;59.40;;;;;;5029708;28;20032;-66
2021/05/30 06:14:34;;;;;;;22.13;14.02;;;14.30;59.20;;;;;;5029693;28;20025;-67
2021/05/30 06:16:59;;;;;;;19.45;13.93;;;14.40;58.50;;;;;;5029708;28;20024;-66
2021/05/30 06:19:26;;;;;;;20.33;13.35;;;14.50;58.40;;;;;;5030003;28;20021;-67
2021/05/30 06:21:52;;;;;;;19.08;13.07;;;14.60;57.70;;;;;;5029640;28;20091;-67
2021/05/30 06:24:17;;;;;;;18.63;13.25;;;14.90;57.70;;;;;;5029810;28;20258;-67
2021/05/30 06:26:43;;;;;;;20.05;14.00;;;15.00;57.30;;;;;;5029887;28;20025;-68
2021/05/30 06:29:08;;;;;;;20.83;12.55;;;15.10;56.50;;;;;;5012079;28;20034;-67
2021/05/30 06:31:34;;;;;;;17.98;12.25;;;15.20;56.10;;;;;;5029401;28;20334;-67
2021/05/30 06:34:00;;;;;;;16.38;12.27;;;15.30;56.00;;;;;;5029593;28;20037;-67
2021/05/30 06:36:25;;;;;;;17.17;11.32;;;15.50;55.70;;;;;;5029764;28;20021;-67
2021/05/30 06:38:51;;;;;;;16.05;10.85;;;15.70;54.70;;;;;;5029283;28;20167;-67
2021/05/30 06:41:17;;;;;;;13.98;9.80;;;15.90;54.30;;;;;;5029230;28;20083;-67
2021/05/30 06:43:43;;;;;;;18.45;9.95;;;16.00;53.30;;;;;;5029600;28;20038;-67
2021/05/30 06:46:09;;;;;;;17.08;10.25;;;16.10;53.00;;;;;;5029598;28;20031;-67
2021/05/30 06:48:34;;;;;;;17.05;10.50;;;16.20;52.80;;;;;;5029276;28;20029;-67
2021/05/30 06:51:13;;;;;;;15.18;10.80;;;16.40;52.70;;;;;;5029330;28;20027;-67
2021/05/30 06:53:38;;;;;;;15.82;9.57;;;16.60;52.40;;;;;;5028109;28;20025;-67
2021/05/30 06:56:04;;;;;;;15.23;10.50;;;16.70;51.80;;;;;;5029195;28;20029;-67
2021/05/30 06:58:30;;;;;;;15.88;9.43;;;16.70;51.40;;;;;;5029377;28;20036;-68
2021/05/30 07:00:55;;;;;;;15.98;9.55;;;16.80;51.50;;;;;;5029525;28;20026;-67
2021/05/30 07:03:21;;;;;;;10.85;8.57;;;16.70;50.30;;;;;;5029198;28;20036;-67
2021/05/30 07:05:46;;;;;;;14.35;10.02;;;16.90;50.90;;;;;;5029232;28;20028;-67
2021/05/30 07:08:12;;;;;;;14.70;9.18;;;17.00;50.50;;;;;;5029166;28;20034;-67
2021/05/30 07:10:37;;;;;;;14.90;9.68;;;17.20;50.00;;;;;;5029016;28;20276;-67
2021/05/30 07:13:05;;;;;;;11.75;9.07;;;17.30;50.10;;;;;;5029201;28;20298;-67
2021/05/30 07:15:31;;;;;;;10.45;8.23;;;17.60;49.80;;;;;;5029168;28;20433;-67
2021/05/30 07:17:57;;;;;;;11.40;8.25;;;17.70;49.20;;;;;;5029382;28;20029;-67
2021/05/30 07:20:22;;;;;;;10.88;7.65;;;17.90;48.20;;;;;;5011466;28;20075;-68
2021/05/30 07:22:48;;;;;;;12.40;8.15;;;17.80;48.10;;;;;;5029001;28;20025;-67
2021/05/30 07:25:14;;;;;;;15.68;7.63;;;18.00;47.80;;;;;;5011727;28;20497;-68
2021/05/30 07:27:39;;;;;;;8.85;7.07;;;18.20;47.40;;;;;;5029308;28;20060;-66
2021/05/30 07:30:06;;;;;;;10.50;6.90;;;18.10;46.40;;;;;;5032705;28;20036;-67
2021/05/30 07:32:31;;;;;;;10.18;6.75;;;18.20;46.90;;;;;;5031470;28;20472;-68
2021/05/30 07:34:57;;;;;;;7.95;6.55;;;18.30;45.80;;;;;;5033112;28;20136;-67
2021/05/30 07:37:22;;;;;;;9.65;6.82;;;18.30;45.90;;;;;;5032461;28;20049;-67
2021/05/30 07:39:48;;;;;;;9.55;6.75;;;18.60;46.10;;;;;;5032230;28;20358;-67
2021/05/30 07:42:13;;;;;;;9.50;7.28;;;18.90;45.00;;;;;;5032685;28;20029;-67
2021/05/30 07:44:39;;;;;;;10.57;7.35;;;19.00;45.40;;;;;;5032443;28;20036;-67
2021/05/30 07:47:05;;;;;;;10.10;6.63;;;18.90;45.00;;;;;;5032422;28;20025;-67
2021/05/30 07:49:31;;;;;;;8.23;5.47;;;18.80;43.70;;;;;;5014799;28;20025;-67
2021/05/30 07:51:57;;;;;;;9.77;5.13;;;18.80;41.80;;;;;;5032512;28;20480;-68
2021/05/30 07:54:24;;;;;;;7.45;5.10;;;18.80;41.60;;;;;;5032221;28;20075;-67
2021/05/30 07:56:50;;;;;;;6.78;5.75;;;19.10;41.40;;;;;;5032241;28;20048;-68
2021/05/30 07:59:16;;;;;;;10.02;6.75;;;19.20;40.90;;;;;;5032254;28;20025;-67
2021/05/30 08:01:41;;;;;;;12.07;5.70;;;19.70;40.70;;;;;;5032528;28;20032;-67
2021/05/30 08:04:07;;;;;;;8.55;5.60;;;19.70;40.40;;;;;;5032163;28;20029;-68
2021/05/30 08:06:32;;;;;;;13.13;5.05;;;20.00;39.80;;;;;;5032227;28;20104;-67
2021/05/30 08:08:58;;;;;;;7.40;5.07;;;20.00;38.30;;;;;;5032258;28;20053;-68
2021/05/30 08:11:24;;;;;;;8.32;4.93;;;20.00;38.40;;;;;;5031877;28;20029;-67
2021/05/30 08:13:50;;;;;;;6.82;4.53;;;20.00;38.50;;;;;;5014333;28;20021;-67
2021/05/30 08:16:16;;;;;;;8.70;5.18;;;20.20;37.80;;;;;;5031902;28;20105;-67
2021/05/30 08:18:41;;;;;;;8.18;4.20;;;20.20;37.30;;;;;;5032222;28;20116;-67
2021/05/30 08:21:07;;;;;;;8.57;4.20;;;20.40;37.00;;;;;;5031827;28;20056;-67
2021/05/30 08:23:34;;;;;;;4.60;3.63;;;20.70;36.40;;;;;;5031723;28;20387;-68
2021/05/30 08:26:00;;;;;;;6.10;4.85;;;21.00;36.10;;;;;;5031708;28;20052;-68
2021/05/30 08:28:25;;;;;;;4.78;3.97;;;21.30;36.70;;;;;;5032037;28;20053;-67
2021/05/30 08:30:51;;;;;;;9.40;4.22;;;21.20;35.50;;;;;;5031549;28;20029;-68
2021/05/30 08:33:16;;;;;;;5.63;4.45;;;21.50;35.60;;;;;;5031443;28;20025;-67
2021/05/30 08:35:42;;;;;;;7.63;4.28;;;22.00;35.50;;;;;;5031792;28;20476;-68
2021/05/30 08:38:08;;;;;;;3.70;3.40;;;22.40;34.90;;;;;;5031265;28;20070;-68
2021/05/30 08:40:33;;;;;;;4.45;3.70;;;22.60;34.30;;;;;;5030152;28;20186;-68
2021/05/30 08:42:59;;;;;;;5.82;4.60;;;23.10;33.70;;;;;;5013853;28;20384;-68
2021/05/30 08:45:24;;;;;;;11.07;4.68;;;22.80;34.10;;;;;;5031560;28;20022;-69
2021/05/30 08:47:50;;;;;;;4.55;4.07;;;22.70;34.10;;;;;;5031350;28;20029;-69
2021/05/30 08:50:16;;;;;;;7.28;3.45;;;22.90;33.90;;;;;;5031265;28;20510;-68
2021/05/30 08:52:42;;;;;;;4.53;3.40;;;23.20;32.80;;;;;;5031336;28;20025;-67
2021/05/30 08:55:08;;;;;;;5.10;2.92;;;22.90;32.10;;;;;;5031205;28;20084;-68
2021/05/30 08:57:33;;;;;;;2.88;2.53;;;22.90;32.10;;;;;;5031057;28;20025;-68
2021/05/30 08:59:59;;;;;;;3.65;3.00;;;23.30;31.80;;;;;;5031299;28;20025;-68
2021/05/30 09:02:24;;;;;;;3.45;3.13;;;22.70;31.40;;;;;;5012886;28;20412;-68
2021/05/30 09:04:55;;;;;;;5.45;2.90;;;22.80;32.00;;;;;;5030617;28;20490;-67
2021/05/30 09:07:56;;;;;;;3.53;3.00;;;22.60;31.40;;;;;;5030966;28;20057;-68
2021/05/30 09:10:26;;;;;;;6.65;3.58;;;23.10;31.60;;;;;;4950555;29;20038;-66
2021/05/30 09:13:12;;;;;;;2.60;2.30;;;23.40;31.90;;;;;;5016776;28;20048;-67
2021/05/30 09:18:17;;;;;;;3.13;2.42;;;22.80;30.40;;;;;;5030931;28;20025;-68
2021/05/30 09:20:52;;;;;;;4.07;2.72;;;23.10;30.50;;;;;;5031065;28;20060;-69
2021/05/30 09:23:27;;;;;;;6.18;3.30;;;22.90;31.10;;;;;;5030622;28;20032;-68
2021/05/30 09:26:09;;;;;;;3.45;2.55;;;23.30;31.30;;;;;;5013040;28;20055;-68
2021/05/30 09:28:35;;;;;;;3.30;3.00;;;23.70;31.20;;;;;;5013644;28;20076;-69
2021/05/30 09:31:01;;;;;;;3.42;2.60;;;23.90;31.00;;;;;;5030420;28;20037;-68
2021/05/30 09:33:31;;;;;;;4.40;2.97;;;24.30;30.50;;;;;;5030799;28;20104;-68
2021/05/30 09:35:57;;;;;;;6.00;3.33;;;23.90;30.50;;;;;;5030643;28;20028;-69
2021/05/30 09:38:33;;;;;;;31.35;22.60;;;24.10;30.70;;;;;;5030200;28;20353;-69
2021/05/30 09:41:10;;;;;;;5.05;3.47;;;23.60;31.40;;;;;;5030425;28;20064;-67
2021/05/30 09:43:48;;;;;;;3.50;3.05;;;24.40;30.70;;;;;;5030162;28;20049;-67
2021/05/30 09:46:17;;;;;;;3.58;3.03;;;24.50;30.10;;;;;;5014192;28;20471;-69
2021/05/30 09:48:50;;;;;;;4.78;3.25;;;24.80;30.40;;;;;;5030499;28;20460;-68
2021/05/30 09:51:22;;;;;;;3.70;2.85;;;25.30;30.10;;;;;;5029302;28;20033;-68
2021/05/30 09:53:47;;;;;;;5.50;3.08;;;25.30;29.60;;;;;;5030067;28;20021;-69
2021/05/30 09:56:33;;;;;;;4.00;3.00;;;25.50;29.80;;;;;;5030426;28;20072;-69
2021/05/30 09:58:58;;;;;;;5.03;2.92;;;25.30;29.80;;;;;;5029876;28;20025;-69
2021/05/30 10:01:27;;;;;;;3.92;3.13;;;25.60;30.00;;;;;;5030517;28;20029;-66
2021/05/30 10:03:56;;;;;;;3.63;3.10;;;25.70;29.90;;;;;;5030117;28;20087;-67
2021/05/30 10:06:22;;;;;;;4.03;2.60;;;25.70;29.60;;;;;;5029621;28;20021;-65
2021/05/30 10:08:48;;;;;;;4.68;2.78;;;25.90;29.20;;;;;;5029869;28;20100;-70
2021/05/30 10:11:16;;;;;;;4.32;2.80;;;26.20;29.30;;;;;;5030487;28;20449;-67
2021/05/30 10:13:42;;;;;;;3.60;2.83;;;26.10;29.30;;;;;;5030640;28;20029;-66
2021/05/30 10:16:08;;;;;;;14.15;10.15;;;26.00;29.40;;;;;;5012716;28;20021;-67
2021/05/30 10:18:44;;;;;;;4.70;3.83;;;26.20;29.60;;;;;;5030194;28;20033;-65
2021/05/30 10:21:09;;;;;;;4.32;3.10;;;26.50;30.00;;;;;;5030285;28;20098;-68
2021/05/30 10:23:41;;;;;;;6.07;4.05;;;27.10;29.20;;;;;;5012706;28;20527;-67
2021/05/30 10:26:21;;;;;;;4.40;3.33;;;27.80;28.80;;;;;;5012939;28;20168;-68
2021/05/30 10:29:08;;;;;;;3.20;2.88;;;27.10;29.20;;;;;;5028911;28;20025;-68
2021/05/30 10:31:35;;;;;;;4.22;2.88;;;27.10;28.90;;;;;;5028711;28;20029;-67
2021/05/30 10:34:10;;;;;;;3.28;2.83;;;26.60;28.90;;;;;;5011521;28;20033;-68
2021/05/30 10:36:36;;;;;;;5.72;3.50;;;25.80;29.30;;;;;;5029314;28;20013;-66
2021/05/30 10:39:02;;;;;;;8.93;3.33;;;25.10;29.70;;;;;;5029168;28;20484;-66
2021/05/30 10:41:27;;;;;;;4.53;3.20;;;25.20;29.80;;;;;;5029687;28;20120;-67
2021/05/30 10:43:53;;;;;;;4.38;2.88;;;25.60;30.10;;;;;;5029467;28;20053;-66
2021/05/30 10:46:19;;;;;;;2.97;2.67;;;26.30;29.70;;;;;;5028968;28;20030;-66
2021/05/30 10:49:08;;;;;;;5.70;2.80;;;27.10;29.30;;;;;;5029075;28;20025;-67
2021/05/30 10:51:42;;;;;;;7.30;2.92;;;27.00;29.10;;;;;;5028612;28;20634;-68
2021/05/30 10:54:11;;;;;;;2.85;2.65;;;27.10;29.20;;;;;;5028756;28;20030;-69
2021/05/30 10:56:45;;;;;;;3.92;3.03;;;27.50;29.00;;;;;;5028657;28;20022;-67
2021/05/30 10:59:11;;;;;;;3.45;3.00;;;26.80;28.90;;;;;;5029050;28;20020;-66
2021/05/30 11:01:40;;;;;;;4.75;3.05;;;26.10;29.50;;;;;;5029354;28;20087;-67
2021/05/30 11:04:33;;;;;;;6.10;3.17;;;26.60;29.40;;;;;;5031976;28;20160;-67
2021/05/30 11:07:24;;;;;;;3.42;2.63;;;26.80;29.50;;;;;;5033688;28;20033;-67
2021/05/30 11:09:50;;;;;;;3.28;2.97;;;26.70;29.20;;;;;;5008698;28;20089;-66
2021/05/30 11:12:52;;;;;;;5.22;3.40;;;26.00;29.70;;;;;;5032933;28;20033;-66
2021/05/30 11:15:22;;;;;;;6.22;3.38;;;26.20;30.00;;;;;;5029124;28;20392;-67
2021/05/30 11:17:49;;;;;;;4.30;3.00;;;26.80;29.70;;;;;;5033097;28;20096;-67
2021/05/30 11:20:19;;;;;;;3.40;3.03;;;27.10;29.50;;;;;;5033151;28;20036;-68
2021/05/30 11:22:49;;;;;;;4.40;3.33;;;27.00;29.70;;;;;;5033124;28;20103;-68
2021/05/30 11:25:20;;;;;;;18.38;11.52;;;27.30;29.40;;;;;;5032989;28;20031;-70
2021/05/30 11:27:49;;;;;;;;;;;27.60;29.40;;;;;;5033288;28;20037;-67
2021/05/30 11:30:35;;;;;;;5.30;3.30;;;27.20;29.60;;;;;;5032859;28;19940;-68
2021/05/30 11:33:01;;;;;;;3.80;3.08;;;27.80;29.30;;;;;;5032377;28;20052;-67
2021/05/30 11:35:28;;;;;;;5.22;3.55;;;28.00;29.20;;;;;;5033036;28;20036;-66
2021/05/30 11:37:54;;;;;;;5.07;3.53;;;27.70;29.60;;;;;;5032368;28;20033;-68
2021/05/30 11:40:22;;;;;;;5.60;3.63;;;27.60;29.50;;;;;;5032656;28;20227;-68
2021/05/30 11:42:48;;;;;;;6.97;5.30;;;27.80;29.30;;;;;;5032619;28;20030;-68
2021/05/30 11:45:34;;;;;;;4.65;3.45;;;27.80;29.30;;;;;;5032844;28;20472;-70
2021/05/30 11:48:10;;;;;;;3.20;2.85;;;27.90;29.20;;;;;;5032374;28;20091;-68
2021/05/30 11:50:38;;;;;;;3.90;3.25;;;28.70;29.30;;;;;;5032470;28;20059;-67
2021/05/30 11:53:23;;;;;;;4.30;3.33;;;29.00;28.90;;;;;;5032264;28;20030;-66
2021/05/30 11:55:49;;;;;;;4.30;3.75;;;28.10;29.00;;;;;;5032272;28;20026;-67
2021/05/30 11:58:14;;;;;;;6.35;3.85;;;27.00;29.50;;;;;;5032396;28;20044;-67
2021/05/30 12:00:40;;;;;;;28.33;20.20;;;27.10;29.80;;;;;;5032348;28;20481;-67
2021/05/30 12:03:12;;;;;;;5.30;3.30;;;27.00;29.70;;;;;;5014221;28;20677;-66
2021/05/30 12:05:39;;;;;;;7.53;4.35;;;27.30;29.70;;;;;;5032026;28;20477;-67
2021/05/30 12:08:17;;;;;;;6.78;3.95;;;27.30;29.90;;;;;;5014390;28;20379;-67
2021/05/30 12:11:00;;;;;;;6.63;3.28;;;27.90;29.80;;;;;;5032256;28;20137;-67
2021/05/30 12:13:35;;;;;;;4.43;3.47;;;28.50;29.10;;;;;;5031778;28;20054;-67
2021/05/30 12:16:17;;;;;;;4.65;3.70;;;28.40;29.10;;;;;;5031933;28;20025;-68
2021/05/30 12:19:09;;;;;;;3.83;3.20;;;27.50;29.30;;;;;;5012333;28;20037;-66
2021/05/30 12:21:45;;;;;;;4.63;2.90;;;27.70;29.20;;;;;;5016309;28;20037;-66
2021/05/30 12:24:12;;;;;;;3.42;3.10;;;28.00;29.00;;;;;;5003010;28;20104;-66
2021/05/30 12:26:42;;;;;;;3.40;3.00;;;27.80;29.10;;;;;;5028671;28;20110;-65
2021/05/30 12:29:08;;;;;;;4.25;3.15;;;27.80;29.00;;;;;;5031631;28;20029;-67
2021/05/30 12:31:34;;;;;;;3.40;3.10;;;27.70;28.60;;;;;;5031462;28;20037;-66
2021/05/30 12:34:06;;;;;;;4.65;2.72;;;27.40;28.60;;;;;;5013938;28;20029;-66
2021/05/30 12:36:36;;;;;;;4.57;3.28;;;28.00;28.90;;;;;;5030893;28;20026;-67
2021/05/30 12:39:24;;;;;;;4.80;2.85;;;28.10;28.30;;;;;;5026571;28;20034;-66
2021/05/30 12:42:06;;;;;;;4.53;3.10;;;28.20;28.70;;;;;;5014142;28;20317;-67
2021/05/30 12:44:36;;;;;;;4.13;3.13;;;28.30;28.40;;;;;;5013042;28;20030;-64
2021/05/30 12:47:08;;;;;;;5.00;2.80;;;28.30;28.50;;;;;;5017028;28;20156;-67